createdAt,value
2022-12-29T00:00:32.777Z,2.16
2022-12-29T00:03:21.272Z,2.17
2022-12-29T00:05:56.903Z,2.15
2022-12-29T00:08:41.057Z,2.12
2022-12-29T00:11:11.664Z,2.09
2022-12-29T00:13:59.541Z,2.06
2022-12-29T00:16:29.803Z,2.04
2022-12-29T00:18:58.292Z,2.03
2022-12-29T00:21:46.234Z,2.02
2022-12-29T00:24:26.836Z,1.99
2022-12-29T00:27:22.900Z,1.97
2022-12-29T00:30:10.408Z,1.94
2022-12-29T00:32:57.534Z,1.92
2022-12-29T00:35:41.039Z,1.88
2022-12-29T00:38:30.425Z,1.86
2022-12-29T00:41:17.494Z,1.85
2022-12-29T00:44:05.218Z,1.85
2022-12-29T00:46:35.696Z,1.88
2022-12-29T00:49:23.874Z,1.91
2022-12-29T00:51:52.816Z,1.92
2022-12-29T00:54:21.504Z,1.95
2022-12-29T00:56:52.144Z,1.96
2022-12-29T00:59:22.026Z,2.01
2022-12-29T01:01:51.561Z,2.04
2022-12-29T01:04:21.630Z,2.06
2022-12-29T01:06:51.730Z,2.07
2022-12-29T01:09:40.743Z,2.10
2022-12-29T01:12:11.543Z,2.12
2022-12-29T01:14:40.441Z,2.14
2022-12-29T01:17:08.796Z,2.14
2022-12-29T01:19:37.219Z,2.14
2022-12-29T01:22:05.555Z,2.15
2022-12-29T01:24:33.861Z,2.13
2022-12-29T01:27:02.899Z,2.14
2022-12-29T01:29:31.738Z,2.15
2022-12-29T01:32:00.086Z,2.16
2022-12-29T01:34:29.013Z,2.15
2022-12-29T01:36:57.498Z,2.14
2022-12-29T01:39:26.762Z,2.13
2022-12-29T01:41:55.235Z,2.11
2022-12-29T01:44:45.422Z,2.10
2022-12-29T01:47:36.278Z,2.07
2022-12-29T01:50:20.370Z,2.06
2022-12-29T01:53:03.939Z,2.06
2022-12-29T01:55:35.913Z,2.05
2022-12-29T01:58:07.601Z,2.03
2022-12-29T02:00:36.726Z,2.03
2022-12-29T02:03:07.473Z,2.03
2022-12-29T02:05:44.952Z,2.03
2022-12-29T02:08:14.922Z,2.03
2022-12-29T02:10:45.637Z,2.03
2022-12-29T02:13:18.455Z,2.03
2022-12-29T02:15:49.760Z,2.04
2022-12-29T02:18:33.763Z,2.04
2022-12-29T02:21:24.214Z,2.05
2022-12-29T02:24:30.528Z,2.07
2022-12-29T02:27:34.415Z,2.12
2022-12-29T02:30:13.350Z,2.17
2022-12-29T02:33:25.460Z,2.23
2022-12-29T02:36:10.829Z,2.30
2022-12-29T02:39:06.974Z,2.36
2022-12-29T02:41:57.983Z,2.43
2022-12-29T02:44:42.546Z,2.48
2022-12-29T02:47:16.201Z,2.51
2022-12-29T02:50:02.824Z,2.54
2022-12-29T02:52:43.888Z,2.57
2022-12-29T02:55:13.035Z,2.60
2022-12-29T02:57:43.182Z,2.62
2022-12-29T03:00:18.346Z,2.65
2022-12-29T03:03:14.904Z,2.67
2022-12-29T03:06:07.796Z,2.69
2022-12-29T03:08:42.369Z,2.71
2022-12-29T03:11:32.370Z,2.73
2022-12-29T03:14:34.839Z,2.75
2022-12-29T03:17:29.454Z,2.76
2022-12-29T03:20:09.451Z,2.81
2022-12-29T03:22:44.956Z,2.84
2022-12-29T03:25:35.058Z,2.87
2022-12-29T03:28:11.001Z,2.91
2022-12-29T03:30:45.109Z,2.95
2022-12-29T03:33:18.949Z,2.98
2022-12-29T03:35:50.605Z,3.02
2022-12-29T03:38:57.999Z,3.04
2022-12-29T03:41:32.393Z,3.08
2022-12-29T03:44:01.381Z,3.11
2022-12-29T03:46:29.694Z,3.13
2022-12-29T03:48:58.370Z,3.14
2022-12-29T03:51:26.754Z,3.16
2022-12-29T03:53:55.968Z,3.19
2022-12-29T03:56:24.346Z,3.21
2022-12-29T03:58:52.839Z,3.24
2022-12-29T04:01:32.153Z,3.27
2022-12-29T04:04:00.623Z,3.30
2022-12-29T04:06:29.091Z,3.30
2022-12-29T04:09:04.183Z,3.29
2022-12-29T04:11:36.038Z,3.28
2022-12-29T04:14:05.961Z,3.28
2022-12-29T04:16:37.022Z,3.30
2022-12-29T04:19:08.647Z,3.33
2022-12-29T04:21:38.239Z,3.35
2022-12-29T04:24:07.791Z,3.37
2022-12-29T04:26:42.784Z,3.39
2022-12-29T04:29:31.307Z,3.42
2022-12-29T04:32:05.947Z,3.43
2022-12-29T04:34:36.586Z,3.44
2022-12-29T04:37:04.910Z,3.45
2022-12-29T04:39:35.671Z,3.46
2022-12-29T04:42:05.158Z,3.45
2022-12-29T04:44:35.319Z,3.46
2022-12-29T04:47:14.468Z,3.47
2022-12-29T04:50:15.310Z,3.46
2022-12-29T04:52:55.635Z,3.46
2022-12-29T04:55:24.164Z,3.46
2022-12-29T04:57:52.556Z,3.45
2022-12-29T05:00:22.038Z,3.45
2022-12-29T05:02:50.622Z,3.44
2022-12-29T05:05:20.026Z,3.42
2022-12-29T05:07:51.645Z,3.42
2022-12-29T05:10:20.022Z,3.42
2022-12-29T05:12:50.353Z,3.42
2022-12-29T05:15:19.713Z,3.43
2022-12-29T05:17:48.143Z,3.43
2022-12-29T05:20:16.939Z,3.42
2022-12-29T05:22:46.169Z,3.42
2022-12-29T05:25:14.599Z,3.42
2022-12-29T05:28:09.995Z,3.42
2022-12-29T05:30:45.676Z,3.43
2022-12-29T05:33:14.216Z,3.44
2022-12-29T05:35:42.871Z,3.46
2022-12-29T05:38:11.642Z,3.47
2022-12-29T05:40:40.268Z,3.48
2022-12-29T05:43:23.299Z,3.48
2022-12-29T05:46:10.252Z,3.48
2022-12-29T05:49:05.668Z,3.47
2022-12-29T05:51:49.450Z,3.46
2022-12-29T05:54:18.406Z,3.45
2022-12-29T05:56:47.380Z,3.45
2022-12-29T05:59:15.906Z,3.45
2022-12-29T06:01:44.576Z,3.46
2022-12-29T06:04:14.227Z,3.47
2022-12-29T06:06:43.750Z,3.46
2022-12-29T06:09:20.121Z,3.47
2022-12-29T06:11:48.730Z,3.47
2022-12-29T06:14:17.142Z,3.47
2022-12-29T06:16:46.645Z,3.47
2022-12-29T06:19:15.563Z,3.46
2022-12-29T06:21:43.881Z,3.45
2022-12-29T06:24:12.607Z,3.44
2022-12-29T06:26:41.356Z,3.42
2022-12-29T06:29:09.844Z,3.41
2022-12-29T06:31:38.551Z,3.39
2022-12-29T06:34:08.703Z,3.38
2022-12-29T06:36:38.825Z,3.36
2022-12-29T06:39:07.517Z,3.34
2022-12-29T06:41:36.507Z,3.33
2022-12-29T06:44:24.433Z,3.31
2022-12-29T06:46:59.371Z,3.31
2022-12-29T06:49:30.096Z,3.31
2022-12-29T06:52:03.360Z,3.32
2022-12-29T06:54:33.635Z,3.32
2022-12-29T06:57:04.033Z,3.32
2022-12-29T06:59:32.800Z,3.33
2022-12-29T07:02:03.535Z,3.36
2022-12-29T07:04:33.441Z,3.39
2022-12-29T07:07:02.010Z,3.42
2022-12-29T07:09:30.417Z,3.46
2022-12-29T07:11:58.827Z,3.51
2022-12-29T07:14:27.585Z,3.55
2022-12-29T07:16:56.184Z,3.59
2022-12-29T07:19:27.323Z,3.64
2022-12-29T07:21:56.590Z,3.71
2022-12-29T07:24:26.922Z,3.77
2022-12-29T07:26:55.478Z,3.84
2022-12-29T07:29:24.241Z,3.90
2022-12-29T07:31:52.811Z,3.97
2022-12-29T07:34:21.570Z,4.07
2022-12-29T07:36:51.542Z,4.15
2022-12-29T07:39:20.056Z,4.24
2022-12-29T07:41:48.576Z,4.34
2022-12-29T07:44:20.851Z,4.45
2022-12-29T07:47:00.068Z,4.55
2022-12-29T07:49:29.207Z,4.61
2022-12-29T07:51:57.811Z,4.66
2022-12-29T07:54:26.317Z,4.69
2022-12-29T07:56:55.396Z,4.72
2022-12-29T07:59:24.032Z,4.77
2022-12-29T08:01:54.739Z,4.80
2022-12-29T08:04:23.191Z,4.85
2022-12-29T08:06:53.011Z,4.90
2022-12-29T08:09:25.451Z,4.95
2022-12-29T08:11:55.519Z,5.01
2022-12-29T08:14:24.026Z,5.09
2022-12-29T08:16:52.482Z,5.13
2022-12-29T08:19:29.732Z,5.20
2022-12-29T08:21:58.182Z,5.27
2022-12-29T08:24:26.743Z,5.32
2022-12-29T08:26:56.333Z,5.36
2022-12-29T08:29:30.685Z,5.41
2022-12-29T08:31:59.218Z,5.43
2022-12-29T08:34:27.588Z,5.43
2022-12-29T08:36:55.974Z,5.42
2022-12-29T08:39:24.461Z,5.41
2022-12-29T08:41:53.029Z,5.40
2022-12-29T08:44:22.547Z,5.38
2022-12-29T08:46:51.252Z,5.36
2022-12-29T08:49:19.693Z,5.33
2022-12-29T08:51:48.264Z,5.31
2022-12-29T08:54:19.526Z,5.28
2022-12-29T08:56:48.086Z,5.27
2022-12-29T08:59:18.465Z,5.28
2022-12-29T09:01:49.153Z,5.32
2022-12-29T09:04:18.504Z,5.35
2022-12-29T09:06:47.371Z,5.39
2022-12-29T09:09:16.269Z,5.43
2022-12-29T09:11:45.958Z,5.50
2022-12-29T09:14:15.676Z,5.56
2022-12-29T09:17:02.680Z,5.61
2022-12-29T09:19:32.564Z,5.65
2022-12-29T09:22:01.073Z,5.71
2022-12-29T09:24:29.758Z,5.79
2022-12-29T09:26:58.582Z,5.86
2022-12-29T09:29:27.294Z,5.93
2022-12-29T09:31:56.816Z,6.01
2022-12-29T09:34:25.251Z,6.08
2022-12-29T09:36:57.521Z,6.17
2022-12-29T09:39:27.079Z,6.25
2022-12-29T09:42:21.270Z,6.32
2022-12-29T09:44:56.758Z,6.40
2022-12-29T09:47:27.145Z,6.47
2022-12-29T09:50:14.870Z,6.51
2022-12-29T09:52:59.626Z,6.53
2022-12-29T09:55:42.486Z,6.53
2022-12-29T09:58:17.169Z,6.51
2022-12-29T10:01:05.406Z,6.50
2022-12-29T10:03:52.229Z,6.47
2022-12-29T10:06:32.900Z,6.44
2022-12-29T10:09:30.359Z,6.42
2022-12-29T10:12:22.662Z,6.38
2022-12-29T10:15:32.803Z,6.34
2022-12-29T10:18:20.289Z,6.30
2022-12-29T10:21:01.524Z,6.28
2022-12-29T10:23:42.189Z,6.28
2022-12-29T10:26:17.165Z,6.30
2022-12-29T10:28:56.817Z,6.34
2022-12-29T10:31:37.069Z,6.40
2022-12-29T10:34:21.171Z,6.46
2022-12-29T10:37:01.623Z,6.51
2022-12-29T10:40:04.423Z,6.58
2022-12-29T10:42:48.808Z,6.68
2022-12-29T10:45:24.799Z,6.79
2022-12-29T10:48:13.679Z,6.88
2022-12-29T10:51:02.113Z,7.01
2022-12-29T10:53:46.643Z,7.17
2022-12-29T10:56:49.004Z,7.33
2022-12-29T10:59:28.282Z,7.47
2022-12-29T11:02:11.945Z,7.66
2022-12-29T11:05:18.174Z,7.85
2022-12-29T11:07:56.836Z,8.08
2022-12-29T11:14:09.580Z,8.52
2022-12-29T11:17:06.654Z,8.77
2022-12-29T11:20:01.826Z,8.99
2022-12-29T11:22:36.931Z,9.14
2022-12-29T11:25:19.852Z,9.26
2022-12-29T11:28:21.547Z,9.38
2022-12-29T11:31:07.528Z,9.47
2022-12-29T11:36:52.293Z,9.79
2022-12-29T11:39:53.328Z,10.06
2022-12-29T11:42:41.458Z,10.26
2022-12-29T11:45:37.579Z,10.38
2022-12-29T11:48:25.245Z,10.47
2022-12-29T11:51:08.266Z,10.51
2022-12-29T11:53:52.321Z,10.53
2022-12-29T11:56:42.143Z,10.54
2022-12-29T11:59:39.737Z,10.56
2022-12-29T12:02:37.214Z,10.59
2022-12-29T12:05:38.956Z,10.58
2022-12-29T12:08:59.478Z,10.57
2022-12-29T12:12:00.160Z,10.56
2022-12-29T12:18:45.178Z,10.49
2022-12-29T12:21:49.410Z,10.44
2022-12-29T12:25:41.130Z,10.38
2022-12-29T12:28:45.905Z,10.31
2022-12-29T12:31:47.190Z,10.26
2022-12-29T12:34:58.770Z,10.22
2022-12-29T12:37:54.732Z,10.21
2022-12-29T12:40:53.979Z,10.19
2022-12-29T12:43:42.260Z,10.16
2022-12-29T12:47:14.220Z,10.10
2022-12-29T12:50:31.348Z,10.07
2022-12-29T12:53:42.145Z,10.01
2022-12-29T12:56:45.833Z,9.93
2022-12-29T12:59:46.763Z,9.87
2022-12-29T13:02:34.590Z,9.86
2022-12-29T13:05:27.327Z,9.87
2022-12-29T13:08:39.600Z,9.85
2022-12-29T13:14:14.242Z,9.72
2022-12-29T13:17:13.391Z,9.68
2022-12-29T13:20:19.369Z,9.61
2022-12-29T13:23:17.224Z,9.54
2022-12-29T13:27:56.937Z,9.52
2022-12-29T13:36:03.409Z,9.60
2022-12-29T13:42:55.488Z,9.70
2022-12-29T13:45:49.030Z,9.71
2022-12-29T13:52:47.284Z,9.69
2022-12-29T13:56:01.234Z,9.69
2022-12-29T13:58:55.242Z,9.64
2022-12-29T14:02:46.983Z,9.49
2022-12-29T14:06:17.838Z,9.27
2022-12-29T14:10:50.940Z,9.09
2022-12-29T14:13:54.840Z,8.90
2022-12-29T14:16:56.133Z,8.77
2022-12-29T14:23:49.466Z,8.54
2022-12-29T14:26:48.469Z,8.44
2022-12-29T14:29:35.239Z,8.37
2022-12-29T14:32:37.921Z,8.29
2022-12-29T14:35:49.352Z,8.23
2022-12-29T14:38:32.522Z,8.17
2022-12-29T14:42:06.243Z,8.13
2022-12-29T14:45:06.988Z,8.09
2022-12-29T14:47:58.700Z,8.07
2022-12-29T14:50:58.117Z,8.04
2022-12-29T14:54:27.959Z,8.00
2022-12-29T14:57:13.890Z,7.96
2022-12-29T15:00:09.253Z,7.92
2022-12-29T15:02:48.005Z,7.88
2022-12-29T15:05:53.239Z,7.83
2022-12-29T15:08:38.516Z,7.79
2022-12-29T15:11:41.505Z,7.74
2022-12-29T15:14:37.416Z,7.69
2022-12-29T15:17:34.083Z,7.65
2022-12-29T15:20:36.013Z,7.60
2022-12-29T15:23:13.111Z,7.56
2022-12-29T15:25:58.113Z,7.53
2022-12-29T15:28:29.414Z,7.49
2022-12-29T15:31:13.929Z,7.45
2022-12-29T15:33:48.635Z,7.40
2022-12-29T15:36:24.910Z,7.34
2022-12-29T15:38:54.720Z,7.26
2022-12-29T15:41:28.216Z,7.21
2022-12-29T15:44:18.430Z,7.16
2022-12-29T15:46:48.621Z,7.08
2022-12-29T15:49:17.617Z,7.01
2022-12-29T15:51:46.801Z,6.95
2022-12-29T15:54:22.148Z,6.91
2022-12-29T15:56:52.418Z,6.87
2022-12-29T15:59:31.449Z,6.84
2022-12-29T16:02:07.162Z,6.82
2022-12-29T16:05:15.563Z,6.80
2022-12-29T16:07:41.321Z,6.77
2022-12-29T16:10:43.961Z,6.75
2022-12-29T16:13:34.197Z,6.72
2022-12-29T16:16:22.165Z,6.68
2022-12-29T16:18:57.325Z,6.65
2022-12-29T16:21:36.273Z,6.61
2022-12-29T16:24:15.134Z,6.56
2022-12-29T16:26:54.128Z,6.54
2022-12-29T16:29:23.202Z,6.51
2022-12-29T16:32:01.916Z,6.48
2022-12-29T16:34:53.379Z,6.44
2022-12-29T16:37:32.138Z,6.40
2022-12-29T16:40:18.763Z,6.36
2022-12-29T16:42:52.337Z,6.33
2022-12-29T16:45:46.671Z,6.29
2022-12-29T16:48:14.977Z,6.26
2022-12-29T16:50:45.169Z,6.23
2022-12-29T16:53:19.574Z,6.21
2022-12-29T16:55:52.841Z,6.18
2022-12-29T16:58:27.079Z,6.15
2022-12-29T17:00:59.747Z,6.11
2022-12-29T17:03:48.737Z,6.07
2022-12-29T17:06:27.226Z,6.05
2022-12-29T17:08:56.225Z,6.05
2022-12-29T17:11:58.369Z,6.03
2022-12-29T17:14:56.139Z,6.01
2022-12-29T17:17:37.814Z,5.97
2022-12-29T17:20:24.879Z,5.95
2022-12-29T17:22:54.348Z,5.93
2022-12-29T17:25:42.426Z,5.93
2022-12-29T17:28:30.334Z,5.92
2022-12-29T17:31:05.859Z,5.90
2022-12-29T17:33:44.296Z,5.87
2022-12-29T17:36:12.919Z,5.85
2022-12-29T17:38:43.546Z,5.81
2022-12-29T17:41:17.355Z,5.77
2022-12-29T17:43:46.092Z,5.72
2022-12-29T17:46:14.497Z,5.65
2022-12-29T17:48:46.721Z,5.60
2022-12-29T17:51:22.511Z,5.55
2022-12-29T17:53:53.690Z,5.51
2022-12-29T17:56:22.318Z,5.48
2022-12-29T17:58:51.436Z,5.46
2022-12-29T18:01:22.790Z,5.43
2022-12-29T18:03:54.857Z,5.41
2022-12-29T18:06:24.504Z,5.40
2022-12-29T18:08:52.956Z,5.40
2022-12-29T18:11:33.058Z,5.39
2022-12-29T18:14:15.082Z,5.40
2022-12-29T18:16:44.459Z,5.41
2022-12-29T18:19:13.163Z,5.41
2022-12-29T18:21:48.300Z,5.41
2022-12-29T18:24:16.776Z,5.37
2022-12-29T18:26:45.281Z,5.33
2022-12-29T18:29:21.372Z,5.32
2022-12-29T18:31:58.217Z,5.29
2022-12-29T18:34:29.861Z,5.27
2022-12-29T18:37:00.041Z,5.26
2022-12-29T18:39:31.838Z,5.24
2022-12-29T18:42:00.433Z,5.22
2022-12-29T18:44:31.553Z,5.18
2022-12-29T18:47:01.783Z,5.16
2022-12-29T18:49:30.362Z,5.15
2022-12-29T18:51:58.959Z,5.13
2022-12-29T18:54:34.113Z,5.12
2022-12-29T18:57:05.949Z,5.11
2022-12-29T18:59:35.348Z,5.10
2022-12-29T19:02:06.301Z,5.08
2022-12-29T19:04:34.747Z,5.09
2022-12-29T19:07:04.293Z,5.11
2022-12-29T19:09:38.744Z,5.12
2022-12-29T19:12:08.545Z,5.12
2022-12-29T19:14:39.463Z,5.11
2022-12-29T19:20:32.224Z,5.10
2022-12-29T19:23:04.333Z,5.09
2022-12-29T19:25:34.251Z,5.09
2022-12-29T19:28:10.560Z,5.11
2022-12-29T19:30:42.512Z,5.14
2022-12-29T19:33:11.076Z,5.18
2022-12-29T19:35:41.732Z,5.21
2022-12-29T19:38:15.024Z,5.24
2022-12-29T19:40:50.607Z,5.25
2022-12-29T19:43:20.289Z,5.25
2022-12-29T19:46:01.805Z,5.24
2022-12-29T19:48:33.601Z,5.22
2022-12-29T19:51:17.505Z,5.21
2022-12-29T19:53:47.728Z,5.21
2022-12-29T19:56:22.224Z,5.22
2022-12-29T19:58:52.017Z,5.25
2022-12-29T20:01:23.185Z,5.30
2022-12-29T20:03:52.778Z,5.34
2022-12-29T20:06:24.890Z,5.39
2022-12-29T20:08:55.927Z,5.45
2022-12-29T20:11:30.174Z,5.51
2022-12-29T20:14:00.145Z,5.56
2022-12-29T20:17:11.351Z,5.62
2022-12-29T20:19:47.218Z,5.72
2022-12-29T20:22:40.074Z,5.81
2022-12-29T20:25:43.608Z,5.89
2022-12-29T20:27:58.500Z,5.97
2022-12-29T20:30:27.884Z,6.02
2022-12-29T20:32:56.255Z,6.04
2022-12-29T20:35:28.417Z,6.05
2022-12-29T20:37:57.863Z,6.06
2022-12-29T20:40:28.802Z,6.07
2022-12-29T20:42:57.512Z,6.06
2022-12-29T20:45:26.672Z,6.05
2022-12-29T20:47:57.534Z,6.04
2022-12-29T20:50:26.887Z,6.03
2022-12-29T20:52:59.630Z,6.04
2022-12-29T20:55:28.964Z,6.04
2022-12-29T20:58:23.282Z,6.05
2022-12-29T21:00:47.417Z,6.05
2022-12-29T21:03:15.958Z,6.04
2022-12-29T21:05:44.470Z,6.02
2022-12-29T21:08:12.915Z,6.01
2022-12-29T21:10:51.529Z,6.00
2022-12-29T21:13:22.993Z,5.98
2022-12-29T21:16:00.629Z,5.97
2022-12-29T21:18:30.223Z,5.96
2022-12-29T21:21:09.901Z,5.95
2022-12-29T21:23:40.268Z,5.95
2022-12-29T21:26:10.422Z,5.93
2022-12-29T21:28:40.218Z,5.90
2022-12-29T21:31:33.519Z,5.86
2022-12-29T21:34:05.449Z,5.83
2022-12-29T21:36:35.969Z,5.82
2022-12-29T21:39:04.747Z,5.79
2022-12-29T21:41:35.373Z,5.78
2022-12-29T21:44:23.400Z,5.79
2022-12-29T21:46:51.838Z,5.80
2022-12-29T21:49:22.244Z,5.80
2022-12-29T21:51:53.859Z,5.79
2022-12-29T21:54:49.746Z,5.77
2022-12-29T21:57:38.813Z,5.77
2022-12-29T22:00:28.668Z,5.76
2022-12-29T22:03:22.748Z,5.75
2022-12-29T22:06:11.692Z,5.73
2022-12-29T22:08:59.386Z,5.70
2022-12-29T22:11:46.618Z,5.67
2022-12-29T22:14:14.944Z,5.68
2022-12-29T22:16:43.504Z,5.69
2022-12-29T22:19:11.875Z,5.70
2022-12-29T22:21:41.403Z,5.69
2022-12-29T22:24:10.011Z,5.67
2022-12-29T22:26:39.014Z,5.65
2022-12-29T22:29:08.076Z,5.62
2022-12-29T22:31:39.143Z,5.60
2022-12-29T22:34:07.605Z,5.60
2022-12-29T22:36:36.110Z,5.60
2022-12-29T22:39:04.494Z,5.61
2022-12-29T22:41:33.834Z,5.64
2022-12-29T22:44:07.281Z,5.69
2022-12-29T22:46:35.789Z,5.72
2022-12-29T22:49:04.157Z,5.74
2022-12-29T22:51:32.580Z,5.75
2022-12-29T22:54:01.638Z,5.76
2022-12-29T22:56:30.219Z,5.78
2022-12-29T22:58:58.876Z,5.80
2022-12-29T23:01:27.409Z,5.80
2022-12-29T23:04:05.977Z,5.80
2022-12-29T23:06:41.120Z,5.81
2022-12-29T23:09:16.731Z,5.86
2022-12-29T23:11:47.471Z,5.92
2022-12-29T23:14:19.291Z,5.98
2022-12-29T23:16:47.903Z,6.07
2022-12-29T23:19:21.104Z,6.14
2022-12-29T23:21:50.849Z,6.19
2022-12-29T23:24:19.731Z,6.21
2022-12-29T23:26:48.841Z,6.23
2022-12-29T23:29:27.625Z,6.25
2022-12-29T23:31:58.549Z,6.26
2022-12-29T23:34:27.037Z,6.26
2022-12-29T23:36:55.294Z,6.24
2022-12-29T23:39:24.987Z,6.22
2022-12-29T23:41:53.499Z,6.18
2022-12-29T23:44:24.262Z,6.16
2022-12-29T23:46:52.875Z,6.15
2022-12-29T23:49:21.459Z,6.13
2022-12-29T23:51:49.754Z,6.10
2022-12-29T23:54:18.115Z,6.05
2022-12-29T23:56:47.671Z,5.96
2022-12-29T23:59:16.245Z,5.87
